Time;durP1;ratioP1;P1;durP2;ratioP2;P2;SDS_P1;SDS_P2;PMS_P1;PMS_P2;Temp;Humidity;BMP_temperature;BMP_pressure;BME280_temperature;BME280_humidity;BME280_pressure;Samples;Min_cycle;Max_cycle;Signal;HPM_P1;HPM_P2
2022/05/16 00:02:00;;;;;;;;;;;;;;;18.19;44.15;101090.72;4809226;29;1052;-63
2022/05/16 00:04:26;;;;;;;;;;;;;;;18.23;44.44;101086.31;4809808;29;1003;-63
2022/05/16 00:06:51;;;;;;;;;;;;;;;18.14;43.87;101080.56;4809182;29;863;-62
2022/05/16 00:09:16;;;;;;;;;;;;;;;18.01;43.23;101086.63;4808991;29;827;-62
2022/05/16 00:11:42;;;;;;;;;;;;;;;17.83;42.25;101080.53;4809871;29;1009;-63
2022/05/16 00:14:08;;;;;;;;;;;;;;;17.74;41.60;101082.16;4809551;29;757;-62
2022/05/16 00:16:33;;;;;;;;;;;;;;;17.71;40.77;101079.97;4808934;29;1978;-63
2022/05/16 00:18:59;;;;;;;;;;;;;;;17.58;40.45;101081.34;4809482;29;900;-63
2022/05/16 00:21:25;;;;;;;;;;;;;;;17.52;40.44;101082.44;4808803;29;910;-63
2022/05/16 00:23:50;;;;;;;;;;;;;;;17.47;40.17;101085.19;4809269;29;914;-63
2022/05/16 00:26:15;;;;;;;;;;;;;;;17.39;39.66;101083.78;4809399;29;836;-63
2022/05/16 00:28:41;;;;;;;;;;;;;;;17.38;39.51;101088.47;4808865;29;1048;-63
2022/05/16 00:31:06;;;;;;;;;;;;;;;17.30;39.32;101083.47;4808598;29;1044;-63
2022/05/16 00:33:32;;;;;;;;;;;;;;;17.31;39.18;101085.16;4808803;29;878;-63
2022/05/16 00:35:57;;;;;;;;;;;;;;;17.22;39.38;101081.25;4809172;29;1974;-63
2022/05/16 00:38:23;;;;;;;;;;;;;;;17.18;39.31;101078.25;4809033;29;804;-63
2022/05/16 00:40:48;;;;;;;;;;;;;;;17.18;39.16;101071.91;4809074;29;837;-63
2022/05/16 00:43:14;;;;;;;;;;;;;;;17.09;39.23;101069.69;4809073;29;1384;-63
2022/05/16 00:45:39;;;;;;;;;;;;;;;17.14;38.83;101077.13;4808804;29;834;-63
2022/05/16 00:48:05;;;;;;;;;;;;;;;17.13;39.33;101080.16;4809104;29;771;-63
2022/05/16 00:50:31;;;;;;;;;;;;;;;17.45;40.65;101077.22;4808870;29;832;-63
2022/05/16 00:52:56;;;;;;;;;;;;;;;17.82;42.28;101089.88;4807351;29;994;-63
2022/05/16 00:55:31;;;;;;;;;;;;;;;18.14;43.97;101088.81;4809390;29;756;-63
2022/05/16 00:57:58;;;;;;;;;;;;;;;18.51;45.19;101086.81;4808382;29;1974;-62
2022/05/16 01:00:26;;;;;;;;;;;;;;;18.74;46.05;101082.63;4806707;29;1056;-63
2022/05/16 01:05:43;;;;;;;;;;;;;;;17.61;48.52;101086.28;4809203;29;777;-63
2022/05/16 01:08:09;;;;;;;;;;;;;;;17.37;47.30;101075.81;4807553;29;873;-64
2022/05/16 01:10:35;;;;;;;;;;;;;;;17.58;44.71;101084.09;4807002;29;1168;-64
2022/05/16 01:13:03;;;;;;;;;;;;;;;17.47;43.00;101085.19;4808658;29;956;-63
2022/05/16 01:15:29;;;;;;;;;;;;;;;17.41;41.48;101082.41;4808561;29;726;-64
2022/05/16 01:17:54;;;;;;;;;;;;;;;17.31;40.70;101078.84;4809191;29;1982;-64
2022/05/16 01:20:20;;;;;;;;;;;;;;;17.24;39.95;101070.84;4808532;29;919;-64
2022/05/16 01:22:46;;;;;;;;;;;;;;;17.18;39.62;101071.91;4808497;29;880;-64
2022/05/16 01:25:16;;;;;;;;;;;;;;;17.06;39.49;101075.72;4808426;29;898;-64
2022/05/16 01:27:42;;;;;;;;;;;;;;;17.05;39.18;101070.50;4809443;29;1119;-64
2022/05/16 01:30:08;;;;;;;;;;;;;;;17.02;39.38;101069.09;4812202;29;879;-63
2022/05/16 01:32:34;;;;;;;;;;;;;;;17.14;39.84;101059.78;4811867;29;824;-63
2022/05/16 01:34:59;;;;;;;;;;;;;;;17.43;41.91;101079.38;4812422;29;844;-63
2022/05/16 01:38:18;;;;;;;;;;;;;;;17.78;43.54;101070.38;4811723;29;1985;-64
2022/05/16 01:40:10;;;;;;;;;;;;;;;18.17;45.70;101069.00;4811685;29;1417;-63
2022/05/16 01:42:35;;;;;;;;;;;;;;;18.43;46.73;101061.50;4812111;29;785;-63
2022/05/16 01:45:01;;;;;;;;;;;;;;;18.73;47.35;101061.69;4811589;29;985;-63
2022/05/16 01:47:26;;;;;;;;;;;;;;;18.88;47.71;101060.84;4811769;29;758;-64
2022/05/16 01:49:52;;;;;;;;;;;;;;;18.88;47.67;101064.44;4810522;29;888;-63
2022/05/16 01:52:17;;;;;;;;;;;;;;;17.72;49.28;101065.13;4811388;29;837;-63
2022/05/16 01:54:42;;;;;;;;;;;;;;;17.31;48.52;101071.41;4811830;29;753;-63
2022/05/16 01:57:08;;;;;;;;;;;;;;;17.60;45.19;101065.41;4812177;29;1915;-62
2022/05/16 01:59:33;;;;;;;;;;;;;;;17.64;43.28;101069.25;4811954;29;941;-63
2022/05/16 02:01:59;;;;;;;;;;;;;;;17.57;41.95;101058.53;4810074;29;1145;-61
2022/05/16 02:04:25;;;;;;;;;;;;;;;17.45;41.17;101060.72;4811762;29;840;-62
2022/05/16 02:06:51;;;;;;;;;;;;;;;17.44;40.58;101059.88;4811841;29;808;-61
2022/05/16 02:09:17;;;;;;;;;;;;;;;17.35;40.16;101060.66;4811067;29;835;-61
2022/05/16 02:11:42;;;;;;;;;;;;;;;17.30;39.73;101064.25;4811304;29;805;-60
2022/05/16 02:14:09;;;;;;;;;;;;;;;17.24;39.10;101065.34;4810862;29;875;-62
2022/05/16 02:16:34;;;;;;;;;;;;;;;17.23;39.19;101069.19;4810866;29;1907;-62
2022/05/16 02:19:00;;;;;;;;;;;;;;;17.12;38.88;101073.81;4811543;29;891;-61
2022/05/16 02:26:53;;;;;;;;;;;;;;;16.96;38.47;101083.94;4811306;29;1027;-62
2022/05/16 02:29:18;;;;;;;;;;;;;;;16.94;38.60;101088.84;4810878;29;1036;-62
2022/05/16 02:31:45;;;;;;;;;;;;;;;16.96;38.65;101081.19;4809796;29;1033;-61
2022/05/16 02:34:11;;;;;;;;;;;;;;;16.90;39.02;101083.09;4811333;29;775;-62
2022/05/16 02:36:36;;;;;;;;;;;;;;;16.91;38.92;101083.91;4810501;29;1903;-61
2022/05/16 02:39:02;;;;;;;;;;;;;;;16.92;38.99;101091.06;4810316;29;800;-61
2022/05/16 02:41:27;;;;;;;;;;;;;;;16.87;38.91;101094.59;4809723;29;1399;-61
2022/05/16 02:43:53;;;;;;;;;;;;;;;16.87;39.15;101089.09;4803557;29;1312;-62
2022/05/16 02:46:18;;;;;;;;;;;;;;;16.87;39.11;101083.59;4804084;29;853;-62
2022/05/16 02:48:44;;;;;;;;;;;;;;;16.85;39.31;101085.78;4802515;29;804;-62
2022/05/16 02:51:09;;;;;;;;;;;;;;;16.90;39.49;101087.72;4792623;30;868;-62
2022/05/16 02:53:35;;;;;;;;;;;;;;;16.85;39.42;101084.94;4802214;29;939;-62
2022/05/16 02:56:00;;;;;;;;;;;;;;;16.85;39.50;101079.47;4811153;29;1904;-62
2022/05/16 02:58:26;;;;;;;;;;;;;;;16.85;39.58;101088.50;4810256;29;1237;-64
2022/05/16 03:00:52;;;;;;;;;;;;;;;16.82;39.72;101093.72;4810560;29;770;-64
2022/05/16 03:03:18;;;;;;;;;;;;;;;16.82;39.79;101096.47;4810734;29;778;-63
2022/05/16 03:05:43;;;;;;;;;;;;;;;16.96;40.69;101097.66;4809811;29;890;-63
2022/05/16 03:08:08;;;;;;;;;;;;;;;17.22;41.40;101095.84;4810911;29;899;-63
2022/05/16 03:10:34;;;;;;;;;;;;;;;17.35;42.39;101097.25;4810875;29;973;-64
2022/05/16 03:13:00;;;;;;;;;;;;;;;17.60;43.59;101098.41;4810676;29;764;-63
2022/05/16 03:15:29;;;;;;;;;;;;;;;17.97;44.65;101104.78;4810151;29;1028;-65
2022/05/16 03:17:55;;;;;;;;;;;;;;;18.30;45.90;101093.22;4809938;29;1915;-64
2022/05/16 03:20:20;;;;;;;;;;;;;;;18.58;46.89;101098.38;4810453;29;833;-63
2022/05/16 03:22:46;;;;;;;;;;;;;;;18.76;47.79;101100.53;4810252;29;805;-64
2022/05/16 03:25:11;;;;;;;;;;;;;;;17.83;50.40;101119.06;4810109;29;816;-63
2022/05/16 03:27:37;;;;;;;;;;;;;;;17.39;49.89;101109.34;4809673;29;1048;-63
2022/05/16 03:30:03;;;;;;;;;;;;;;;17.66;47.45;101115.75;4810163;29;1036;-64
2022/05/16 03:32:28;;;;;;;;;;;;;;;17.69;44.99;101110.50;4809859;29;905;-63
2022/05/16 03:34:54;;;;;;;;;;;;;;;17.61;43.08;101105.53;4796673;29;1204;-65
2022/05/16 03:37:20;;;;;;;;;;;;;;;17.47;41.73;101112.66;4791833;29;1982;-65
2022/05/16 03:42:30;;;;;;;;;;;;;;;17.22;40.00;101109.59;4792441;29;773;-64
2022/05/16 03:44:55;;;;;;;;;;;;;;;17.10;39.52;101112.56;4803085;29;889;-64
2022/05/16 03:47:21;;;;;;;;;;;;;;;17.08;39.29;101113.91;4810011;29;929;-63
2022/05/16 03:49:46;;;;;;;;;;;;;;;17.00;39.15;101119.91;4809755;29;841;-63
2022/05/16 03:52:11;;;;;;;;;;;;;;;17.05;39.85;101112.53;4809915;29;911;-61
2022/05/16 03:54:37;;;;;;;;;;;;;;;17.22;40.54;101117.84;4809829;29;761;-64
2022/05/16 03:57:02;;;;;;;;;;;;;;;17.37;41.71;101121.72;4809473;29;1907;-63
2022/05/16 03:59:28;;;;;;;;;;;;;;;17.50;42.33;101118.47;4807598;29;1256;-62
2022/05/16 04:01:53;;;;;;;;;;;;;;;17.60;42.92;101125.91;4809521;29;845;-63
2022/05/16 04:04:19;;;;;;;;;;;;;;;17.66;43.60;101130.31;4809491;29;806;-65
2022/05/16 04:06:45;;;;;;;;;;;;;;;17.74;43.78;101129.78;4808548;29;818;-65
2022/05/16 04:09:11;;;;;;;;;;;;;;;17.86;43.93;101131.44;4809502;29;922;-63
2022/05/16 04:11:36;;;;;;;;;;;;;;;17.87;44.34;101133.09;4809734;29;983;-63
2022/05/16 04:14:01;;;;;;;;;;;;;;;17.98;44.34;101134.78;4808945;29;879;-63
2022/05/16 04:16:27;;;;;;;;;;;;;;;18.10;45.50;101138.09;4808850;29;1907;-63
2022/05/16 04:18:53;;;;;;;;;;;;;;;18.15;45.45;101137.25;4809644;29;810;-63
2022/05/16 04:21:18;;;;;;;;;;;;;;;18.16;45.02;101140.81;4809041;29;765;-60
2022/05/16 04:23:44;;;;;;;;;;;;;;;18.15;44.93;101140.00;4809090;29;827;-66
2022/05/16 04:26:09;;;;;;;;;;;;;;;18.19;44.69;101134.78;4809700;29;830;-64
2022/05/16 04:28:35;;;;;;;;;;;;;;;18.20;44.14;101137.28;4808929;29;1142;-64
2022/05/16 04:31:00;;;;;;;;;;;;;;;18.02;43.49;101146.91;4809132;29;1044;-63
2022/05/16 04:33:25;;;;;;;;;;;;;;;17.90;42.39;101149.06;4809305;29;871;-64
2022/05/16 04:35:51;;;;;;;;;;;;;;;17.79;41.81;101145.44;4808277;29;967;-62
2022/05/16 04:38:16;;;;;;;;;;;;;;;17.72;40.97;101148.47;4809118;29;1911;-62
2022/05/16 04:43:42;;;;;;;;;;;;;;;17.58;40.02;101137.16;4752595;30;1220;-61
2022/05/16 04:46:08;;;;;;;;;;;;;;;17.51;40.13;101138.53;4797436;29;953;-63
2022/05/16 04:48:34;;;;;;;;;;;;;;;17.47;39.71;101138.22;4808767;29;894;-62
2022/05/16 04:50:59;;;;;;;;;;;;;;;17.42;39.56;101144.53;4808469;29;823;-64
2022/05/16 04:53:25;;;;;;;;;;;;;;;17.36;39.58;101140.13;4808788;29;838;-64
2022/05/16 04:55:50;;;;;;;;;;;;;;;17.35;39.42;101148.63;4808835;29;772;-61
2022/05/16 04:58:16;;;;;;;;;;;;;;;17.33;39.32;101151.66;4808412;29;1927;-64
2022/05/16 05:00:41;;;;;;;;;;;;;;;17.30;39.12;101151.38;4807187;29;847;-62
2022/05/16 05:03:07;;;;;;;;;;;;;;;17.28;39.14;101144.22;4812140;29;809;-60
2022/05/16 05:05:35;;;;;;;;;;;;;;;17.27;39.30;101155.50;4811301;29;851;-60
2022/05/16 05:08:00;;;;;;;;;;;;;;;17.24;39.06;101153.28;4812483;29;930;-61
2022/05/16 05:16:14;;;;;;;;;;;;;;;17.21;39.21;101153.84;4812189;29;1016;-62
2022/05/16 05:18:40;;;;;;;;;;;;;;;17.22;39.52;101155.47;4812195;29;1030;-64
2022/05/16 05:21:06;;;;;;;;;;;;;;;17.35;40.34;101159.63;4812285;29;837;-63
2022/05/16 05:23:33;;;;;;;;;;;;;;;17.56;42.27;101157.78;4812458;29;946;-64
2022/05/16 05:25:58;;;;;;;;;;;;;;;17.72;42.50;101159.47;4801565;29;1129;-65
2022/05/16 05:28:24;;;;;;;;;;;;;;;17.90;43.01;101160.06;4811730;29;1020;-65
2022/05/16 05:30:49;;;;;;;;;;;;;;;17.98;43.92;101165.06;4811967;29;993;-64
2022/05/16 05:33:15;;;;;;;;;;;;;;;18.20;44.80;101156.53;4811811;29;888;-61
2022/05/16 05:35:40;;;;;;;;;;;;;;;18.25;45.16;101156.53;4811388;29;1538;-64
2022/05/16 05:38:06;;;;;;;;;;;;;;;18.31;45.15;101151.84;4812163;29;1974;-64
2022/05/16 05:40:31;;;;;;;;;;;;;;;18.34;45.15;101158.72;4811556;29;829;-64
2022/05/16 05:43:01;;;;;;;;;;;;;;;18.30;44.43;101158.47;4812201;29;741;-64
2022/05/16 05:45:26;;;;;;;;;;;;;;;18.17;43.78;101159.00;4811837;29;869;-64
2022/05/16 05:47:52;;;;;;;;;;;;;;;18.01;42.58;101153.50;4811720;29;856;-64
2022/05/16 05:50:18;;;;;;;;;;;;;;;17.87;41.37;101160.59;4811894;29;749;-64
2022/05/16 05:52:43;;;;;;;;;;;;;;;17.69;40.91;101160.00;4811625;29;902;-64
2022/05/16 05:55:09;;;;;;;;;;;;;;;17.56;40.08;101158.59;4811306;29;1023;-64
2022/05/16 05:57:34;;;;;;;;;;;;;;;17.55;39.33;101156.13;4811802;29;1903;-64
2022/05/16 06:00:00;;;;;;;;;;;;;;;17.44;38.95;101147.84;4811383;29;917;-63
2022/05/16 06:02:25;;;;;;;;;;;;;;;17.43;38.68;101157.22;4811760;29;831;-64
2022/05/16 06:04:51;;;;;;;;;;;;;;;17.32;38.67;101147.28;4811303;29;955;-64
2022/05/16 06:07:16;;;;;;;;;;;;;;;17.26;38.39;101151.94;4811534;29;928;-64
2022/05/16 06:09:42;;;;;;;;;;;;;;;17.20;38.29;101146.66;4809859;29;868;-64
2022/05/16 06:12:08;;;;;;;;;;;;;;;17.19;38.46;101156.00;4811287;29;764;-63
2022/05/16 06:14:33;;;;;;;;;;;;;;;17.14;38.17;101154.06;4811296;29;778;-64
2022/05/16 06:16:59;;;;;;;;;;;;;;;17.14;38.29;101153.22;4810090;29;1911;-64
2022/05/16 06:19:24;;;;;;;;;;;;;;;17.19;38.73;101161.50;4811499;29;1216;-63
2022/05/16 06:21:50;;;;;;;;;;;;;;;17.27;39.32;101158.25;4811173;29;818;-65
2022/05/16 06:27:00;;;;;;;;;;;;;;;17.62;41.41;101153.94;4810399;29;1145;-63
2022/05/16 06:29:25;;;;;;;;;;;;;;;17.77;42.60;101158.66;4811024;29;1105;-63
2022/05/16 06:31:51;;;;;;;;;;;;;;;17.90;43.11;101149.88;4810630;29;884;-64
2022/05/16 06:34:17;;;;;;;;;;;;;;;18.03;43.56;101158.72;4810964;29;1287;-65
2022/05/16 06:36:42;;;;;;;;;;;;;;;18.05;43.78;101154.59;4810538;29;1970;-65
2022/05/16 06:39:08;;;;;;;;;;;;;;;18.11;44.19;101153.47;4811493;29;715;-67
2022/05/16 06:41:34;;;;;;;;;;;;;;;18.19;44.04;101159.53;4810652;29;862;-64
2022/05/16 06:44:01;;;;;;;;;;;;;;;18.26;44.02;101163.69;4810700;29;813;-65
2022/05/16 06:46:26;;;;;;;;;;;;;;;18.34;44.52;101154.06;4810889;29;1048;-64
2022/05/16 06:48:52;;;;;;;;;;;;;;;18.31;43.73;101160.09;4810395;29;1078;-64
2022/05/16 06:51:17;;;;;;;;;;;;;;;18.17;43.09;101157.06;4810807;29;1169;-64
2022/05/16 06:53:43;;;;;;;;;;;;;;;18.03;42.23;101153.22;4810623;29;929;-63
2022/05/16 06:56:08;;;;;;;;;;;;;;;17.90;41.45;101157.31;4810299;29;1980;-66
2022/05/16 06:58:34;;;;;;;;;;;;;;;17.77;40.48;101162.22;4810759;29;891;-64
2022/05/16 07:00:59;;;;;;;;;;;;;;;17.72;39.85;101159.47;4810162;29;1028;-65
2022/05/16 07:03:25;;;;;;;;;;;;;;;17.60;39.52;101162.47;4810613;29;768;-64
2022/05/16 07:05:50;;;;;;;;;;;;;;;17.55;39.28;101156.94;4810680;29;793;-64
2022/05/16 07:08:16;;;;;;;;;;;;;;;17.49;39.11;101159.94;4810270;29;846;-65
2022/05/16 07:10:42;;;;;;;;;;;;;;;17.43;38.96;101157.22;4810225;29;767;-65
2022/05/16 07:13:08;;;;;;;;;;;;;;;17.35;39.03;101154.97;4810217;29;968;-66
2022/05/16 07:15:33;;;;;;;;;;;;;;;17.30;39.01;101154.94;4809873;29;865;-68
2022/05/16 07:18:00;;;;;;;;;;;;;;;17.28;38.79;101165.41;4810118;29;1984;-64
2022/05/16 07:20:25;;;;;;;;;;;;;;;17.20;38.67;101152.16;4809984;29;1125;-63
2022/05/16 07:22:50;;;;;;;;;;;;;;;17.18;38.86;101154.34;4810481;29;893;-65
2022/05/16 07:25:16;;;;;;;;;;;;;;;17.13;38.93;101157.91;4809169;29;1240;-62
2022/05/16 07:28:03;;;;;;;;;;;;;;;17.20;38.79;101160.41;4809733;29;1208;-63
2022/05/16 07:30:32;;;;;;;;;;;;;;;17.21;39.62;101157.41;4809813;29;1385;-63
2022/05/16 07:32:57;;;;;;;;;;;;;;;17.43;40.22;101159.94;4809650;29;947;-61
2022/05/16 07:35:25;;;;;;;;;;;;;;;17.58;41.66;101164.66;4809794;29;1205;-63
2022/05/16 07:37:53;;;;;;;;;;;;;;;17.87;42.87;101166.91;4810140;29;1915;-62
2022/05/16 07:40:19;;;;;;;;;;;;;;;18.20;44.61;101172.22;4808806;29;816;-62
2022/05/16 07:42:44;;;;;;;;;;;;;;;18.49;45.37;101169.72;4809575;29;791;-62
2022/05/16 07:45:10;;;;;;;;;;;;;;;18.72;46.47;101165.56;4808991;29;1217;-63
2022/05/16 07:47:35;;;;;;;;;;;;;;;18.77;46.63;101156.47;4809729;29;825;-63
2022/05/16 07:50:01;;;;;;;;;;;;;;;18.44;47.13;101155.97;4809663;29;809;-63
2022/05/16 07:52:27;;;;;;;;;;;;;;;17.95;47.04;101168.34;4809977;29;775;-66
2022/05/16 07:54:52;;;;;;;;;;;;;;;17.38;46.29;101154.44;4809282;29;1261;-62
2022/05/16 07:57:18;;;;;;;;;;;;;;;17.04;45.60;101154.00;4808988;29;1919;-65
2022/05/16 07:59:43;;;;;;;;;;;;;;;17.45;42.98;101149.50;4809235;29;866;-62
2022/05/16 08:02:08;;;;;;;;;;;;;;;17.53;41.57;101155.56;4806235;29;1264;-61
2022/05/16 08:04:34;;;;;;;;;;;;;;;17.49;40.83;101154.44;4809073;29;1247;-63
2022/05/16 08:07:01;;;;;;;;;;;;;;;17.41;40.61;101151.13;4809697;29;1288;-63
2022/05/16 08:12:10;;;;;;;;;;;;;;;17.35;39.72;101157.72;4809314;29;937;-62
2022/05/16 08:14:36;;;;;;;;;;;;;;;17.35;39.69;101159.63;4809274;29;899;-62
2022/05/16 08:17:02;;;;;;;;;;;;;;;17.29;39.57;101161.53;4809076;29;1907;-63
2022/05/16 08:19:29;;;;;;;;;;;;;;;17.29;39.49;101153.28;4809310;29;904;-62
2022/05/16 08:21:54;;;;;;;;;;;;;;;17.21;39.26;101151.09;4809159;29;871;-63
2022/05/16 08:24:20;;;;;;;;;;;;;;;17.21;39.38;101164.81;4808774;29;846;-63
2022/05/16 08:26:46;;;;;;;;;;;;;;;17.19;39.32;101159.56;4809425;29;772;-63
2022/05/16 08:29:12;;;;;;;;;;;;;;;17.16;39.48;101157.38;4808812;29;1032;-65
2022/05/16 08:31:37;;;;;;;;;;;;;;;17.28;40.50;101154.41;4808392;29;820;-63
2022/05/16 08:34:02;;;;;;;;;;;;;;;17.49;41.21;101170.94;4809025;29;833;-64
2022/05/16 08:41:56;;;;;;;;;;;;;;;17.84;43.60;101167.47;4807836;29;872;-63
2022/05/16 08:44:28;;;;;;;;;;;;;;;17.92;43.92;101160.63;4808818;29;888;-63
2022/05/16 08:47:11;;;;;;;;;;;;;;;17.97;44.17;101162.56;4807810;29;1040;-63
2022/05/16 08:49:43;;;;;;;;;;;;;;;18.03;44.45;101159.53;4807653;29;1281;-64
2022/05/16 08:52:17;;;;;;;;;;;;;;;18.10;44.63;101160.13;4808807;29;1198;-62
2022/05/16 08:54:51;;;;;;;;;;;;;;;18.16;44.61;101162.84;4807776;29;920;-62
2022/05/16 08:57:26;;;;;;;;;;;;;;;18.23;44.73;101158.72;4808635;29;1904;-62
2022/05/16 08:59:55;;;;;;;;;;;;;;;18.27;44.85;101157.09;4807511;29;1169;-63
2022/05/16 09:02:21;;;;;;;;;;;;;;;18.30;44.65;101153.78;4806630;29;1273;-63
2022/05/16 09:04:50;;;;;;;;;;;;;;;18.32;44.53;101150.75;4809047;29;792;-63
2022/05/16 09:07:36;;;;;;;;;;;;;;;18.23;44.10;101152.38;4808891;29;801;-63
2022/05/16 09:10:09;;;;;;;;;;;;;;;18.08;42.67;101145.78;4801600;29;1390;-63
2022/05/16 09:12:46;;;;;;;;;;;;;;;17.98;41.80;101139.44;4807643;29;1275;-63
2022/05/16 09:15:23;;;;;;;;;;;;;;;17.78;41.17;101141.88;4808209;29;1324;-63
2022/05/16 09:18:07;;;;;;;;;;;;;;;17.75;40.76;101142.44;4808396;29;1904;-62
2022/05/16 09:20:51;;;;;;;;;;;;;;;17.69;40.30;101145.44;4808687;29;846;-63
2022/05/16 09:23:23;;;;;;;;;;;;;;;17.57;39.82;101134.69;4807779;29;1292;-63
2022/05/16 09:25:52;;;;;;;;;;;;;;;17.53;39.70;101137.16;4807360;29;821;-63
2022/05/16 09:28:35;;;;;;;;;;;;;;;17.50;39.31;101134.13;4808276;29;1204;-62
2022/05/16 09:31:22;;;;;;;;;;;;;;;17.43;39.30;101132.47;4806891;29;1142;-62
2022/05/16 09:33:51;;;;;;;;;;;;;;;17.39;39.38;101139.59;4807378;29;1655;-63
2022/05/16 09:36:20;;;;;;;;;;;;;;;17.35;39.41;101124.75;4805817;29;1969;-62
2022/05/16 09:38:46;;;;;;;;;;;;;;;17.34;39.25;101131.31;4811072;29;1307;-63
2022/05/16 09:41:34;;;;;;;;;;;;;;;17.32;38.91;101122.53;4806838;29;1295;-63
2022/05/16 09:44:10;;;;;;;;;;;;;;;17.26;39.13;101127.19;4794951;29;1095;-62
2022/05/16 09:46:42;;;;;;;;;;;;;;;17.29;39.21;101117.56;4806885;29;833;-60
2022/05/16 09:49:07;;;;;;;;;;;;;;;17.22;39.20;101122.47;4809268;29;1093;-60
2022/05/16 09:51:46;;;;;;;;;;;;;;;17.22;39.27;101111.50;4810856;29;884;-61
2022/05/16 09:54:18;;;;;;;;;;;;;;;17.42;40.20;101108.00;4811546;29;878;-61
2022/05/16 09:57:02;;;;;;;;;;;;;;;17.58;41.16;101103.34;4811323;29;1982;-61
2022/05/16 09:59:40;;;;;;;;;;;;;;;17.75;42.07;101103.09;4811705;29;816;-61
2022/05/16 10:02:10;;;;;;;;;;;;;;;17.85;42.68;101103.13;4811905;29;741;-61
2022/05/16 10:04:39;;;;;;;;;;;;;;;17.92;43.11;101103.69;4811894;29;826;-61
2022/05/16 10:07:05;;;;;;;;;;;;;;;17.97;43.58;101093.78;4810987;29;944;-60
2022/05/16 10:09:37;;;;;;;;;;;;;;;18.03;43.69;101100.94;4811567;29;820;-61
2022/05/16 10:12:03;;;;;;;;;;;;;;;18.13;43.66;101099.00;4811389;29;745;-61
2022/05/16 10:14:29;;;;;;;;;;;;;;;18.09;43.72;101089.66;4810069;29;904;-61
2022/05/16 10:16:55;;;;;;;;;;;;;;;18.24;43.82;101093.47;4810882;29;1903;-61
2022/05/16 10:19:22;;;;;;;;;;;;;;;18.27;43.99;101084.66;4809605;29;1123;-60
2022/05/16 10:21:50;;;;;;;;;;;;;;;18.34;44.04;101084.38;4810027;29;845;-59
2022/05/16 10:24:16;;;;;;;;;;;;;;;18.30;43.80;101087.69;4810790;29;872;-59
2022/05/16 10:26:43;;;;;;;;;;;;;;;18.23;43.36;101091.81;4810027;29;825;-60
2022/05/16 10:29:10;;;;;;;;;;;;;;;18.15;42.59;101089.66;4809684;29;1111;-60
2022/05/16 10:34:21;;;;;;;;;;;;;;;17.86;41.17;101081.91;4810690;29;1108;-61
2022/05/16 10:36:51;;;;;;;;;;;;;;;17.82;40.50;101078.06;4809067;29;1908;-60
2022/05/16 10:39:18;;;;;;;;;;;;;;;17.73;39.80;101081.34;4808478;29;1240;-60
2022/05/16 10:41:52;;;;;;;;;;;;;;;17.64;39.78;101080.25;4813972;29;940;-60
2022/05/16 10:44:36;;;;;;;;;;;;;;;17.58;39.80;101073.09;4806581;29;891;-63
2022/05/16 10:47:13;;;;;;;;;;;;;;;17.54;39.20;101072.81;4809238;29;1032;-64
2022/05/16 10:49:41;;;;;;;;;;;;;;;17.52;39.04;101064.00;4810256;29;1032;-63
2022/05/16 10:52:10;;;;;;;;;;;;;;;17.43;39.34;101058.25;4810827;29;780;-63
2022/05/16 10:54:36;;;;;;;;;;;;;;;17.37;39.05;101048.31;4809754;29;832;-62
2022/05/16 10:57:15;;;;;;;;;;;;;;;17.37;39.11;101053.81;4810269;29;1903;-62
2022/05/16 10:59:47;;;;;;;;;;;;;;;17.37;39.04;101047.50;4808126;29;1241;-61
2022/05/16 11:02:15;;;;;;;;;;;;;;;17.29;38.86;101040.59;4809194;29;989;-60
2022/05/16 11:04:50;;;;;;;;;;;;;;;17.30;39.07;101027.69;4810779;29;798;-60
2022/05/16 11:07:15;;;;;;;;;;;;;;;17.26;39.05;101030.16;4810734;29;1161;-60
2022/05/16 11:09:43;;;;;;;;;;;;;;;17.26;39.08;101031.00;4810356;29;992;-61
2022/05/16 11:12:09;;;;;;;;;;;;;;;17.36;39.82;101035.69;4810729;29;1228;-60
2022/05/16 11:14:40;;;;;;;;;;;;;;;17.55;40.51;101040.66;4808977;29;1059;-61
2022/05/16 11:17:09;;;;;;;;;;;;;;;17.73;41.42;101033.78;4808920;29;1903;-61
2022/05/16 11:19:37;;;;;;;;;;;;;;;17.83;42.42;101031.03;4809566;29;806;-61
2022/05/16 11:22:07;;;;;;;;;;;;;;;17.96;42.84;101029.66;4809953;29;906;-60
2022/05/16 11:24:32;;;;;;;;;;;;;;;18.00;43.42;101029.94;4808867;29;1394;-61
2022/05/16 11:27:04;;;;;;;;;;;;;;;18.05;43.29;101025.25;4810335;29;801;-61
2022/05/16 11:29:48;;;;;;;;;;;;;;;18.14;43.42;101020.00;4809965;29;1092;-59
2022/05/16 11:32:32;;;;;;;;;;;;;;;18.16;43.72;101019.72;4807293;29;1070;-60
2022/05/16 11:35:17;;;;;;;;;;;;;;;18.21;43.80;101034.31;4803895;29;1236;-59
2022/05/16 11:37:42;;;;;;;;;;;;;;;18.27;43.69;101030.47;4809779;29;1911;-60
2022/05/16 11:40:19;;;;;;;;;;;;;;;18.33;44.06;101019.41;4809851;29;881;-60
2022/05/16 11:42:48;;;;;;;;;;;;;;;18.34;43.83;101035.69;4808792;29;893;-60
2022/05/16 11:45:16;;;;;;;;;;;;;;;18.24;43.14;101038.44;4809684;29;882;-60
2022/05/16 11:47:48;;;;;;;;;;;;;;;18.21;43.61;101048.06;4809318;29;898;-59
2022/05/16 11:50:22;;;;;;;;;;;;;;;19.32;48.55;101058.13;4808729;29;1568;-59
2022/05/16 11:53:03;;;;;;;;;;;;;;;19.41;51.69;101061.09;4807862;29;1042;-60
2022/05/16 12:00:59;;;;;;;;;;;;;;;17.48;53.71;101070.34;4808083;29;865;-62
2022/05/16 12:03:32;;;;;;;;;;;;;;;18.21;50.51;101061.00;4808591;29;844;-59
2022/05/16 12:06:12;;;;;;;;;;;;;;;18.38;48.83;101061.53;4809301;29;800;-59
2022/05/16 12:08:38;;;;;;;;;;;;;;;18.25;47.03;101071.19;4809546;29;875;-59
2022/05/16 12:11:04;;;;;;;;;;;;;;;18.07;45.24;101078.09;4809381;29;893;-58
2022/05/16 12:13:29;;;;;;;;;;;;;;;17.83;43.09;101064.03;4809075;29;783;-62
2022/05/16 12:16:16;;;;;;;;;;;;;;;17.71;41.66;101058.81;4809434;29;837;-59
2022/05/16 12:18:43;;;;;;;;;;;;;;;17.71;42.51;101053.31;4809123;29;1914;-61
2022/05/16 12:21:10;;;;;;;;;;;;;;;17.68;42.56;101042.03;4809231;29;1066;-60
2022/05/16 12:23:54;;;;;;;;;;;;;;;17.61;41.17;101056.88;4799418;29;1505;-61
2022/05/16 12:26:43;;;;;;;;;;;;;;;17.45;40.94;101050.53;4808598;29;1208;-61
2022/05/16 12:29:08;;;;;;;;;;;;;;;17.68;41.65;101064.84;4801724;29;1227;-62
2022/05/16 12:31:41;;;;;;;;;;;;;;;17.67;41.83;101074.22;4808429;29;849;-61
2022/05/16 12:34:06;;;;;;;;;;;;;;;17.75;41.92;101079.19;4808673;29;1173;-61
2022/05/16 12:36:32;;;;;;;;;;;;;;;17.61;40.55;101078.88;4808930;29;1903;-61
2022/05/16 12:38:58;;;;;;;;;;;;;;;17.47;39.88;101065.94;4806809;29;1516;-61
2022/05/16 12:41:40;;;;;;;;;;;;;;;17.45;39.27;101063.47;4805901;29;1167;-61
2022/05/16 12:44:32;;;;;;;;;;;;;;;17.35;39.31;101064.25;4807563;29;1039;-61
2022/05/16 12:47:09;;;;;;;;;;;;;;;17.38;39.45;101069.22;4789951;29;1320;-60
2022/05/16 12:49:38;;;;;;;;;;;;;;;17.45;40.83;101072.53;4807547;29;781;-62
2022/05/16 12:52:11;;;;;;;;;;;;;;;17.57;41.51;101079.69;4803813;29;872;-62
2022/05/16 12:54:48;;;;;;;;;;;;;;;17.82;43.23;101062.38;4806748;29;749;-61
2022/05/16 12:57:20;;;;;;;;;;;;;;;17.97;43.98;101060.78;4808973;29;1907;-60
2022/05/16 13:00:18;;;;;;;;;;;;;;;18.03;43.93;101059.66;4808415;29;776;-60
2022/05/16 13:02:43;;;;;;;;;;;;;;;18.27;45.05;101048.88;4768936;29;1212;-59
2022/05/16 13:05:20;;;;;;;;;;;;;;;18.27;45.16;101033.22;4808269;29;781;-60
2022/05/16 13:07:49;;;;;;;;;;;;;;;18.32;44.88;101026.03;4807589;29;777;-60
2022/05/16 13:10:17;;;;;;;;;;;;;;;18.41;45.24;101035.34;4807008;29;1411;-59
2022/05/16 13:12:43;;;;;;;;;;;;;;;18.39;44.92;101030.13;4808371;29;808;-59
2022/05/16 13:15:17;;;;;;;;;;;;;;;18.45;44.58;101040.06;4808228;29;1050;-58
2022/05/16 13:17:44;;;;;;;;;;;;;;;18.50;43.93;101046.66;4806585;29;1906;-59
2022/05/16 13:20:17;;;;;;;;;;;;;;;18.36;43.34;101036.22;4807667;29;822;-59
2022/05/16 13:22:48;;;;;;;;;;;;;;;18.18;42.22;101040.38;4809391;29;797;-59
2022/05/16 13:25:14;;;;;;;;;;;;;;;18.07;41.15;101052.50;4806625;29;826;-59
2022/05/16 13:30:24;;;;;;;;;;;;;;;17.88;40.05;101041.19;4807876;29;1228;-59
2022/05/16 13:32:50;;;;;;;;;;;;;;;17.93;41.56;101033.78;4812453;29;1035;-59
2022/05/16 13:35:30;;;;;;;;;;;;;;;17.79;40.17;101025.28;4811036;29;815;-60
2022/05/16 13:37:56;;;;;;;;;;;;;;;17.68;39.68;101031.84;4812246;29;1911;-61
2022/05/16 13:40:22;;;;;;;;;;;;;;;17.59;39.08;101034.31;4812401;29;834;-60